Singelgracht — PCGM — position and weather

sailwx.info

Track history (hours):
 
Tides and Currents Weather Stations Pressure Air Temp Water Temp Dewpoint Dewpoint Depression Visibility Wind Speed Wind Dir Waves Ship Positions

Singelgracht

Last reported at 2018-Jan-23 03:30 UTC. Time now 2018-Jan-23 03:54 UTC.
Position N 61°08' E 021°26'.

Length 168 m; beam 25 m.

Type: Cargo ship. MMSI: 245546000.

Date/timePositionNaut miles runAvg speedWind from/ knotsBaromVisibWave heightAir tempDewpointWater temp
2018-Jan-23 03:30N 61°08' E 021°26'0 0.1
2018-Jan-23 03:00N 61°08' E 021°26'3 5.1
2018-Jan-23 02:30N 61°06' E 021°21'611.9
2018-Jan-23 01:59N 61°08' E 021°09'612.8
2018-Jan-23 01:30N 61°12' E 021°01'  
2018-Jan-19 12:25N 60°35' E 019°03'717.1
2018-Jan-19 12:00N 60°28' E 019°03'917.1
2018-Jan-19 11:30N 60°19' E 019°01'816.6
2018-Jan-19 11:00N 60°11' E 019°06'917.0
2018-Jan-19 10:30N 60°04' E 019°17'22615.0
2018-Jan-18 19:28N 56°29' E 017°06'816.7
2018-Jan-18 19:00N 56°22' E 017°01'916.7
2018-Jan-18 18:30N 56°14' E 016°56'916.8
2018-Jan-18 17:59N 56°06' E 016°49'816.2
2018-Jan-18 17:30N 56°01' E 016°38'816.3
2018-Jan-18 17:00N 55°57' E 016°25'816.4
2018-Jan-18 16:30N 55°53' E 016°12'816.7
2018-Jan-18 16:00N 55°50' E 015°59'816.8
2018-Jan-18 15:30N 55°46' E 015°46'817.0
2018-Jan-18 15:00N 55°42' E 015°33'816.9
2018-Jan-18 14:30N 55°37' E 015°20'813.5
2018-Jan-18 13:56N 55°33' E 015°09'613.1
2018-Jan-18 13:30N 55°30' E 015°00'613.0
2018-Jan-18 13:00N 55°27' E 014°51'712.9
2018-Jan-18 12:30N 55°23' E 014°41'612.9
2018-Jan-18 12:00N 55°19' E 014°33'613.1
2018-Jan-18 11:30N 55°14' E 014°26'713.3
2018-Jan-18 11:00N 55°09' E 014°18'813.0
2018-Jan-18 10:24N 55°03' E 014°09'712.8
2018-Jan-18 09:51N 54°60' E 013°58'5713.4
2018-Jan-18 05:34N 54°38' E 012°26'113.9
2018-Jan-18 05:29N 54°37' E 012°24'1913.2
2018-Jan-18 04:02N 54°24' E 012°00'114.2
2018-Jan-18 03:57N 54°24' E 011°58'614.2
2018-Jan-18 03:30N 54°24' E 011°47'713.9
2018-Jan-18 03:00N 54°27' E 011°37'714.6
2018-Jan-18 02:30N 54°31' E 011°25'714.7
2018-Jan-18 02:01N 54°34' E 011°14'714.4
2018-Jan-18 01:31N 54°38' E 011°04'714.3
2018-Jan-18 01:00N 54°41' E 010°53'1413.9
2018-Jan-18 00:00N 54°55' E 010°54'114.7
2018-Jan-17 23:58N 54°56' E 010°55'  
Track history (hours):
 
Tides and Currents Weather Stations Pressure Air Temp Water Temp Dewpoint Dewpoint Depression Visibility Wind Speed Wind Dir Waves Ship Positions

Singelgracht

Last reported at 2018-Jan-23 03:30 UTC. Time now 2018-Jan-23 03:54 UTC.
Position N 61°08' E 021°26'.

Length 168 m; beam 25 m.

Type: Cargo ship. MMSI: 245546000.

Date/timePositionNaut miles runAvg speedWind from/ knotsBaromVisibWave heightAir tempDewpointWater temp
2018-Jan-23 03:30N 61°08' E 021°26'0 0.1
2018-Jan-23 03:00N 61°08' E 021°26'3 5.1
2018-Jan-23 02:30N 61°06' E 021°21'611.9
2018-Jan-23 01:59N 61°08' E 021°09'612.8
2018-Jan-23 01:30N 61°12' E 021°01'  
2018-Jan-19 12:25N 60°35' E 019°03'717.1
2018-Jan-19 12:00N 60°28' E 019°03'917.1
2018-Jan-19 11:30N 60°19' E 019°01'816.6
2018-Jan-19 11:00N 60°11' E 019°06'917.0
2018-Jan-19 10:30N 60°04' E 019°17'22615.0
2018-Jan-18 19:28N 56°29' E 017°06'816.7
2018-Jan-18 19:00N 56°22' E 017°01'916.7
2018-Jan-18 18:30N 56°14' E 016°56'916.8
2018-Jan-18 17:59N 56°06' E 016°49'816.2
2018-Jan-18 17:30N 56°01' E 016°38'816.3
2018-Jan-18 17:00N 55°57' E 016°25'816.4
2018-Jan-18 16:30N 55°53' E 016°12'816.7
2018-Jan-18 16:00N 55°50' E 015°59'816.8
2018-Jan-18 15:30N 55°46' E 015°46'817.0
2018-Jan-18 15:00N 55°42' E 015°33'816.9
2018-Jan-18 14:30N 55°37' E 015°20'813.5
2018-Jan-18 13:56N 55°33' E 015°09'613.1
2018-Jan-18 13:30N 55°30' E 015°00'613.0
2018-Jan-18 13:00N 55°27' E 014°51'712.9
2018-Jan-18 12:30N 55°23' E 014°41'612.9
2018-Jan-18 12:00N 55°19' E 014°33'613.1
2018-Jan-18 11:30N 55°14' E 014°26'713.3
2018-Jan-18 11:00N 55°09' E 014°18'813.0
2018-Jan-18 10:24N 55°03' E 014°09'712.8
2018-Jan-18 09:51N 54°60' E 013°58'5713.4
2018-Jan-18 05:34N 54°38' E 012°26'113.9
2018-Jan-18 05:29N 54°37' E 012°24'1913.2
2018-Jan-18 04:02N 54°24' E 012°00'114.2
2018-Jan-18 03:57N 54°24' E 011°58'614.2
2018-Jan-18 03:30N 54°24' E 011°47'713.9
2018-Jan-18 03:00N 54°27' E 011°37'714.6
2018-Jan-18 02:30N 54°31' E 011°25'714.7
2018-Jan-18 02:01N 54°34' E 011°14'714.4
2018-Jan-18 01:31N 54°38' E 011°04'714.3
2018-Jan-18 01:00N 54°41' E 010°53'1413.9
2018-Jan-18 00:00N 54°55' E 010°54'114.7
2018-Jan-17 23:58N 54°56' E 010°55'  

Dump ship's entire track history